Time;durP1;ratioP1;P1;durP2;ratioP2;P2;SDS_P1;SDS_P2;PMS_P1;PMS_P2;Temp;Humidity;BMP_temperature;BMP_pressure;BME280_temperature;BME280_humidity;BME280_pressure;Samples;Min_cycle;Max_cycle;Signal;HPM_P1;HPM_P2
2023/06/01 00:00:39;;;;;;;22.20;7.70;;;;;;;13.62;87.81;102124.75;5104678;28;20486;-75
2023/06/01 00:03:04;;;;;;;22.42;8.43;;;;;;;13.57;88.21;102120.63;5120525;28;20016;-75
2023/06/01 00:05:29;;;;;;;23.15;8.02;;;;;;;13.52;88.24;102112.81;5101518;28;20096;-76
2023/06/01 00:07:55;;;;;;;22.63;8.15;;;;;;;13.48;88.33;102115.81;5099076;28;20024;-75
2023/06/01 00:10:20;;;;;;;21.20;7.20;;;;;;;13.41;88.73;102120.75;5096290;28;20046;-75
2023/06/01 00:12:45;;;;;;;24.95;8.80;;;;;;;13.37;88.66;102122.78;5101163;28;20032;-76
2023/06/01 00:15:11;;;;;;;22.10;8.63;;;;;;;13.32;88.97;102119.47;5103706;28;20043;-76
2023/06/01 00:17:36;;;;;;;22.70;7.38;;;;;;;13.26;88.75;102109.94;5122158;28;20039;-76
2023/06/01 00:20:07;;;;;;;21.15;8.15;;;;;;;13.27;88.90;102111.69;5128314;28;20176;-75
2023/06/01 00:22:34;;;;;;;26.10;8.82;;;;;;;13.22;88.92;102108.44;5120836;28;20028;-75
2023/06/01 00:24:59;;;;;;;23.67;8.65;;;;;;;13.19;89.25;102108.63;5096896;28;20088;-76
2023/06/01 00:27:25;;;;;;;22.38;7.72;;;;;;;13.12;88.84;102112.69;5106303;27;20011;-75
2023/06/01 00:29:50;;;;;;;23.52;9.13;;;;;;;13.07;89.17;102107.56;5105148;28;20031;-75
2023/06/01 00:32:15;;;;;;;22.60;8.82;;;;;;;13.05;89.61;102114.03;5105004;28;20035;-76
2023/06/01 00:34:41;;;;;;;23.00;9.15;;;;;;;13.01;89.34;102112.50;5126710;28;20036;-76
2023/06/01 00:37:09;;;;;;;22.77;9.40;;;;;;;12.96;88.93;102117.28;5105048;28;20022;-75
2023/06/01 00:39:34;;;;;;;22.20;9.10;;;;;;;12.89;89.28;102115.00;5127366;28;20016;-75
2023/06/01 00:42:00;;;;;;;20.25;8.73;;;;;;;12.88;89.54;102113.25;5101580;28;20023;-76
2023/06/01 00:44:25;;;;;;;21.42;8.52;;;;;;;12.85;89.44;102113.44;5126813;27;20012;-76
2023/06/01 00:46:51;;;;;;;24.00;10.18;;;;;;;12.79;89.93;102107.59;5106949;28;20024;-75
2023/06/01 00:49:17;;;;;;;27.23;10.70;;;;;;;12.75;89.88;102112.28;5125676;28;20043;-75
2023/06/01 00:51:42;;;;;;;22.20;9.20;;;;;;;12.70;89.89;102109.88;5099248;28;20012;-75
2023/06/01 00:54:08;;;;;;;25.90;9.60;;;;;;;12.66;90.06;102111.03;5109342;28;20036;-76
2023/06/01 00:56:35;;;;;;;22.73;9.13;;;;;;;12.64;89.93;102112.13;5097122;28;20032;-76
2023/06/01 00:59:01;;;;;;;24.75;9.55;;;;;;;12.60;89.89;102111.41;5127739;27;20012;-76
2023/06/01 01:01:26;;;;;;;27.63;9.75;;;;;;;12.54;89.82;102115.34;5094769;28;20034;-74
2023/06/01 01:03:57;;;;;;;27.50;9.77;;;;;;;12.55;89.83;102117.09;5098205;28;20119;-75
2023/06/01 01:06:34;;;;;;;22.67;9.32;;;;;;;12.53;89.22;102119.03;5088750;28;20024;-75
2023/06/01 01:09:17;;;;;;;25.00;9.75;;;;;;;12.48;89.69;102121.13;5108311;28;20035;-75
2023/06/01 01:11:51;;;;;;;24.83;10.20;;;;;;;12.43;90.00;102117.88;5086350;28;20069;-75
2023/06/01 01:14:25;;;;;;;25.83;10.23;;;;;;;12.39;89.75;102117.16;5102791;28;20091;-75
2023/06/01 01:17:07;;;;;;;24.92;10.82;;;;;;;12.39;89.77;102121.69;5113163;28;20490;-75
2023/06/01 01:19:53;;;;;;;24.95;9.80;;;;;;;12.33;89.39;102116.66;5095662;28;20043;-75
2023/06/01 01:22:38;;;;;;;23.15;10.57;;;;;;;12.27;89.54;102119.72;5094951;28;20114;-75
2023/06/01 01:25:25;;;;;;;24.48;10.63;;;;;;;12.20;90.48;102117.41;5107346;28;20724;-75
2023/06/01 01:28:12;;;;;;;27.95;10.40;;;;;;;12.18;89.68;102119.34;5111272;28;20031;-75
2023/06/01 01:30:41;;;;;;;21.00;9.05;;;;;;;12.08;90.44;102118.16;5107919;28;20217;-75
2023/06/01 01:33:07;;;;;;;25.80;11.10;;;;;;;12.07;90.54;102116.41;5096310;28;20016;-75
2023/06/01 01:35:33;;;;;;;28.40;11.95;;;;;;;12.07;90.78;102125.34;5098605;28;20542;-75
2023/06/01 01:37:59;;;;;;;23.95;11.25;;;;;;;12.03;90.81;102122.94;5095294;28;20028;-75
2023/06/01 01:40:24;;;;;;;25.20;10.98;;;;;;;11.99;90.74;102133.03;5120559;28;20541;-75
2023/06/01 01:42:52;;;;;;;24.40;11.73;;;;;;;11.99;90.83;102133.03;5112799;28;20020;-75
2023/06/01 01:45:18;;;;;;;26.20;11.20;;;;;;;11.93;90.60;102135.19;5116188;28;20032;-75
2023/06/01 01:48:08;;;;;;;24.27;11.73;;;;;;;11.96;90.37;102130.53;5113322;28;20032;-75
2023/06/01 01:50:38;;;;;;;23.80;11.02;;;;;;;11.85;90.86;102131.09;5103550;28;20032;-75
2023/06/01 01:53:07;;;;;;;24.20;11.50;;;;;;;11.78;90.71;102127.03;5101897;28;20045;-75
2023/06/01 01:55:34;;;;;;;25.75;12.35;;;;;;;11.77;91.09;102133.38;5108167;28;20288;-75
2023/06/01 01:58:02;;;;;;;27.45;11.65;;;;;;;11.75;90.68;102126.34;5119647;28;20501;-76
2023/06/01 02:00:28;;;;;;;26.33;12.00;;;;;;;11.69;91.40;102127.56;5119345;28;20024;-75
2023/06/01 02:02:53;;;;;;;25.15;12.70;;;;;;;11.67;91.05;102129.47;5116968;28;20054;-75
2023/06/01 02:05:18;;;;;;;29.38;13.60;;;;;;;11.61;91.25;102130.72;5094270;28;20036;-75
2023/06/01 02:07:45;;;;;;;26.90;13.48;;;;;;;11.56;91.06;102127.41;5096791;28;20024;-75
2023/06/01 02:10:10;;;;;;;28.40;13.50;;;;;;;11.55;91.18;102131.03;5111380;28;20088;-75
2023/06/01 02:12:35;;;;;;;27.70;13.20;;;;;;;11.49;91.33;102128.69;5111662;28;20528;-75
2023/06/01 02:15:01;;;;;;;26.45;13.20;;;;;;;11.43;91.20;102127.22;5096225;28;20028;-75
2023/06/01 02:17:26;;;;;;;29.75;14.27;;;;;;;11.42;91.67;102128.19;5099611;28;20047;-75
2023/06/01 02:19:52;;;;;;;27.38;12.95;;;;;;;11.41;91.42;102128.28;5098838;28;20030;-75
2023/06/01 02:22:17;;;;;;;28.25;12.75;;;;;;;11.36;91.08;102125.81;5097253;28;20061;-75
2023/06/01 02:24:42;;;;;;;28.00;13.63;;;;;;;11.33;91.49;102116.13;5112450;28;20024;-75
2023/06/01 02:27:08;;;;;;;29.67;13.88;;;;;;;11.31;91.28;102123.41;5119048;28;20088;-75
2023/06/01 02:29:33;;;;;;;27.65;13.77;;;;;;;11.27;91.43;102121.81;5098019;28;20040;-74
2023/06/01 02:31:58;;;;;;;30.85;13.32;;;;;;;11.26;91.59;102121.91;5115467;28;20115;-74
2023/06/01 02:34:24;;;;;;;26.25;12.15;;;;;;;11.26;91.98;102124.59;5096649;28;20027;-75
2023/06/01 02:36:49;;;;;;;28.98;13.35;;;;;;;11.26;92.08;102125.50;5108466;28;20019;-75
2023/06/01 02:39:15;;;;;;;25.40;13.55;;;;;;;11.25;91.96;102126.44;5114588;28;20067;-75
2023/06/01 02:41:41;;;;;;;25.90;12.10;;;;;;;11.31;91.82;102127.91;5094917;28;20038;-75
2023/06/01 02:44:06;;;;;;;24.98;11.73;;;;;;;11.31;91.51;102122.53;5114834;28;20043;-75
2023/06/01 02:46:31;;;;;;;23.25;10.77;;;;;;;11.33;92.55;102120.63;5118068;28;20035;-75
2023/06/01 02:48:57;;;;;;;26.52;12.40;;;;;;;11.35;91.74;102124.09;5106123;28;20054;-75
2023/06/01 02:51:22;;;;;;;24.65;11.63;;;;;;;11.37;91.44;102123.03;5093165;28;20069;-75
2023/06/01 02:53:47;;;;;;;24.17;11.27;;;;;;;11.34;91.30;102120.53;5085993;28;20032;-75
2023/06/01 02:56:13;;;;;;;24.05;11.05;;;;;;;11.31;90.94;102126.09;5084975;28;20046;-74
2023/06/01 02:58:38;;;;;;;23.17;10.60;;;;;;;11.32;91.19;102124.28;5116712;28;20099;-75
2023/06/01 03:01:03;;;;;;;25.25;9.90;;;;;;;11.30;91.62;102118.09;5093477;28;20044;-75
2023/06/01 03:03:29;;;;;;;23.38;10.18;;;;;;;11.30;91.10;102123.47;5107131;28;20105;-75
2023/06/01 03:05:55;;;;;;;23.98;9.85;;;;;;;11.27;91.07;102120.97;5092178;28;20054;-75
2023/06/01 03:08:21;;;;;;;24.35;10.32;;;;;;;11.24;91.35;102126.53;5098300;28;20020;-75
2023/06/01 03:10:46;;;;;;;24.20;10.30;;;;;;;11.20;90.96;102120.47;5093129;28;20094;-75
2023/06/01 03:13:12;;;;;;;26.88;10.10;;;;;;;11.26;91.37;102120.09;5113068;28;20401;-75
2023/06/01 03:15:38;;;;;;;24.60;10.32;;;;;;;11.24;91.26;102126.53;5096657;28;20034;-75
2023/06/01 03:18:05;;;;;;;22.30;9.65;;;;;;;11.25;91.17;102123.75;5089448;28;20034;-75
2023/06/01 03:20:31;;;;;;;22.50;9.57;;;;;;;11.21;90.99;102124.00;5081957;28;20043;-75
2023/06/01 03:22:56;;;;;;;23.73;9.98;;;;;;;11.19;91.18;102129.47;5101351;28;20118;-75
2023/06/01 03:25:21;;;;;;;23.88;10.48;;;;;;;11.21;91.24;102124.88;5084257;28;20032;-75
2023/06/01 03:27:47;;;;;;;23.55;8.82;;;;;;;11.19;91.47;102130.34;5101468;28;20095;-75
2023/06/01 03:30:15;;;;;;;24.13;10.50;;;;;;;11.20;91.28;102125.84;5087863;28;20032;-74
2023/06/01 03:32:42;;;;;;;24.05;9.30;;;;;;;11.25;92.16;102130.97;5089522;28;20125;-75
2023/06/01 03:35:08;;;;;;;25.88;9.00;;;;;;;11.26;91.54;102132.69;5116661;28;20469;-75
2023/06/01 03:37:37;;;;;;;22.20;9.18;;;;;;;11.25;91.85;102128.28;5113984;28;20142;-75
2023/06/01 03:40:10;;;;;;;22.77;9.52;;;;;;;11.26;91.63;102129.97;5109188;28;20100;-75
2023/06/01 03:42:40;;;;;;;24.80;8.90;;;;;;;11.23;91.38;102128.34;5095459;28;20026;-75
2023/06/01 03:45:06;;;;;;;22.73;9.25;;;;;;;11.24;92.27;102137.28;5113127;28;20089;-75
2023/06/01 03:47:31;;;;;;;23.38;9.73;;;;;;;11.25;91.65;102131.81;5111260;28;20039;-75
2023/06/01 03:49:58;;;;;;;20.65;8.35;;;;;;;11.25;91.45;102136.34;5112624;28;20028;-75
2023/06/01 03:52:24;;;;;;;21.35;9.27;;;;;;;11.24;91.54;102131.91;5095383;28;20034;-75
2023/06/01 03:54:50;;;;;;;24.83;8.98;;;;;;;11.27;91.38;102135.28;5096359;28;20164;-75
2023/06/01 03:57:16;;;;;;;23.42;10.05;;;;;;;11.25;91.18;102139.03;5094724;28;20124;-75
2023/06/01 03:59:41;;;;;;;22.77;9.40;;;;;;;11.21;90.64;102134.78;5108650;28;20046;-74
2023/06/01 04:02:09;;;;;;;25.30;10.00;;;;;;;11.24;91.46;102145.34;5110564;28;20016;-74
2023/06/01 04:04:35;;;;;;;23.08;9.77;;;;;;;11.21;91.13;102138.31;5113852;28;20020;-75
2023/06/01 04:07:03;;;;;;;22.33;9.80;;;;;;;11.23;91.48;102140.91;5114916;28;20076;-75
2023/06/01 04:09:31;;;;;;;22.88;9.02;;;;;;;11.24;90.81;102139.97;5092637;28;20363;-75
2023/06/01 04:11:56;;;;;;;25.42;10.10;;;;;;;11.27;91.09;102142.50;5109386;28;20023;-74
2023/06/01 04:14:22;;;;;;;22.48;9.35;;;;;;;11.25;90.89;102134.50;5099838;28;20032;-75
2023/06/01 04:16:47;;;;;;;22.75;8.98;;;;;;;11.24;90.69;102138.16;5109962;28;20025;-75
2023/06/01 04:19:13;;;;;;;20.45;8.85;;;;;;;11.25;91.21;102142.59;5111638;28;20028;-75
2023/06/01 04:21:38;;;;;;;22.50;8.98;;;;;;;11.22;91.44;102142.75;5110511;28;20044;-75
2023/06/01 04:24:03;;;;;;;22.15;8.45;;;;;;;11.21;90.92;102138.31;5098676;28;20034;-75
2023/06/01 04:26:31;;;;;;;22.20;8.50;;;;;;;11.26;91.55;102141.63;5118870;28;20035;-75
2023/06/01 04:28:58;;;;;;;23.02;8.57;;;;;;;11.25;91.03;102144.41;5081745;28;20025;-75
2023/06/01 04:31:24;;;;;;;23.25;9.38;;;;;;;11.26;91.13;102141.63;5105846;28;20050;-75
2023/06/01 04:33:52;;;;;;;22.27;9.45;;;;;;;11.31;91.26;102144.06;5090634;28;20024;-75
2023/06/01 04:36:25;;;;;;;23.50;8.60;;;;;;;11.29;90.65;102143.28;5082751;28;20025;-75
2023/06/01 04:38:54;;;;;;;21.75;8.57;;;;;;;11.31;90.27;102146.75;5102507;28;20195;-74
2023/06/01 04:41:23;;;;;;;20.93;7.63;;;;;;;11.31;90.84;102160.22;5102463;28;20039;-75
2023/06/01 04:43:52;;;;;;;23.25;8.77;;;;;;;11.35;90.21;102154.56;5091858;28;20388;-75
2023/06/01 04:46:19;;;;;;;24.03;8.43;;;;;;;11.35;89.33;102157.25;5105448;28;20515;-75
2023/06/01 04:48:45;;;;;;;21.73;8.73;;;;;;;11.37;89.36;102157.19;5096151;28;20032;-74
2023/06/01 04:51:10;;;;;;;22.20;8.32;;;;;;;11.42;89.82;102147.03;5108310;28;20046;-75
2023/06/01 04:53:35;;;;;;;22.35;7.97;;;;;;;11.42;88.18;102155.13;5079556;28;20031;-75
2023/06/01 04:56:01;;;;;;;26.50;8.70;;;;;;;11.42;88.61;102152.41;5079435;28;20044;-74
2023/06/01 04:58:26;;;;;;;20.77;8.35;;;;;;;11.44;87.86;102158.56;5096824;28;20039;-75
2023/06/01 05:00:52;;;;;;;21.48;8.48;;;;;;;11.46;87.16;102159.34;5096688;28;20032;-75
2023/06/01 05:03:17;;;;;;;25.08;9.57;;;;;;;11.48;88.17;102149.38;5084865;28;20041;-75
2023/06/01 05:05:44;;;;;;;25.38;9.82;;;;;;;11.50;88.63;102149.28;5095702;28;20047;-75
2023/06/01 05:08:10;;;;;;;21.08;8.55;;;;;;;11.56;88.60;102146.25;5090229;28;20028;-75
2023/06/01 05:10:35;;;;;;;22.60;9.30;;;;;;;11.61;88.50;102140.59;5081502;28;20024;-75
2023/06/01 05:13:00;;;;;;;21.63;9.60;;;;;;;11.63;88.20;102141.41;5083707;28;20053;-75
2023/06/01 05:15:27;;;;;;;22.70;9.35;;;;;;;11.65;87.62;102143.00;5100208;28;20109;-74
2023/06/01 05:17:54;;;;;;;25.35;9.50;;;;;;;11.69;87.25;102143.72;5080221;28;20052;-76
2023/06/01 05:20:20;;;;;;;24.98;10.20;;;;;;;11.70;87.27;102148.16;5114028;28;20580;-74
2023/06/01 05:22:45;;;;;;;22.08;9.20;;;;;;;11.71;86.71;102144.50;5091486;28;20027;-74
2023/06/01 05:25:10;;;;;;;20.95;9.68;;;;;;;11.70;87.35;102150.84;5099117;28;20027;-75
2023/06/01 05:27:36;;;;;;;23.45;8.95;;;;;;;11.68;87.02;102147.38;5087757;28;20066;-75
2023/06/01 05:30:02;;;;;;;21.40;8.82;;;;;;;11.70;87.34;102151.72;5103848;28;20024;-74
2023/06/01 05:32:27;;;;;;;23.90;10.07;;;;;;;11.76;88.28;102139.72;5105835;28;20047;-75
2023/06/01 05:34:53;;;;;;;25.02;9.85;;;;;;;11.76;87.08;102139.72;5096974;28;20545;-75
2023/06/01 05:37:18;;;;;;;24.67;10.57;;;;;;;11.79;86.63;102144.94;5072528;28;20119;-75
2023/06/01 05:39:43;;;;;;;24.08;9.93;;;;;;;11.85;87.91;102149.97;5087307;28;20035;-75
2023/06/01 05:42:08;;;;;;;24.65;10.50;;;;;;;11.87;86.33;102139.09;5102598;28;20474;-75
2023/06/01 05:44:34;;;;;;;27.95;10.05;;;;;;;11.91;87.02;102142.50;5081838;28;20016;-76
2023/06/01 05:46:59;;;;;;;23.80;10.43;;;;;;;11.93;86.22;102140.56;5087905;28;20043;-75
2023/06/01 05:49:25;;;;;;;25.15;10.07;;;;;;;11.96;86.48;102144.00;5072571;28;20025;-75
2023/06/01 05:51:50;;;;;;;23.88;10.88;;;;;;;12.01;86.56;102139.19;5094212;28;20035;-74
2023/06/01 05:54:16;;;;;;;25.50;10.65;;;;;;;12.02;85.71;102135.53;5085532;28;20032;-74
2023/06/01 05:56:41;;;;;;;23.70;9.98;;;;;;;12.07;85.51;102137.97;5084364;28;20088;-74
2023/06/01 05:59:06;;;;;;;22.65;9.75;;;;;;;12.12;85.76;102145.78;5080880;28;20036;-75
2023/06/01 06:01:32;;;;;;;23.83;10.05;;;;;;;12.18;87.46;102134.63;5088112;28;20046;-75
2023/06/01 06:03:58;;;;;;;24.60;10.13;;;;;;;12.17;86.25;102141.84;5077837;28;20027;-75
2023/06/01 06:06:23;;;;;;;23.67;9.77;;;;;;;12.16;85.29;102142.81;5084220;28;20029;-75
2023/06/01 06:08:49;;;;;;;28.10;10.98;;;;;;;12.21;86.74;102134.44;5075441;28;20110;-74
2023/06/01 06:11:14;;;;;;;24.73;9.25;;;;;;;12.21;85.38;102146.09;5092105;28;20020;-75
2023/06/01 06:13:40;;;;;;;22.15;9.07;;;;;;;12.23;86.09;102148.72;5090081;28;20016;-74
2023/06/01 06:16:05;;;;;;;22.67;9.25;;;;;;;12.15;84.31;102154.56;5084618;28;20112;-75
2023/06/01 06:18:30;;;;;;;26.15;10.85;;;;;;;12.07;84.26;102151.44;5087382;28;20055;-75
2023/06/01 06:20:56;;;;;;;22.92;8.63;;;;;;;12.01;84.06;102154.50;5089456;28;20099;-75
2023/06/01 06:23:21;;;;;;;27.77;11.07;;;;;;;11.94;83.95;102158.50;5089836;28;20230;-75
2023/06/01 06:25:48;;;;;;;32.15;10.63;;;;;;;11.92;84.50;102158.56;5093513;28;20099;-75
2023/06/01 06:28:13;;;;;;;27.27;10.93;;;;;;;11.93;85.24;102163.00;5087468;28;20029;-75
2023/06/01 06:30:38;;;;;;;26.92;10.25;;;;;;;12.01;85.18;102151.81;5084959;28;20029;-74
2023/06/01 06:33:04;;;;;;;25.33;11.30;;;;;;;12.09;86.01;102157.59;5087763;28;20063;-75
2023/06/01 06:35:29;;;;;;;24.13;10.07;;;;;;;12.21;85.16;102156.00;5084410;28;20116;-74
2023/06/01 06:37:54;;;;;;;24.95;10.10;;;;;;;12.26;85.82;102147.66;5089011;28;20092;-75
2023/06/01 06:40:20;;;;;;;25.98;10.77;;;;;;;12.30;86.30;102143.81;5085341;28;20184;-75
2023/06/01 06:42:46;;;;;;;26.10;10.40;;;;;;;12.37;85.32;102148.75;5085199;28;20070;-74
2023/06/01 06:45:11;;;;;;;25.45;10.23;;;;;;;12.51;85.68;102141.66;5095660;28;20107;-75
2023/06/01 06:47:37;;;;;;;24.35;10.57;;;;;;;12.61;84.77;102150.91;5091992;28;20063;-75
2023/06/01 06:50:02;;;;;;;25.25;11.27;;;;;;;12.74;83.25;102148.34;5081749;28;20020;-74
2023/06/01 06:52:27;;;;;;;24.40;10.48;;;;;;;12.85;81.83;102151.22;5089603;28;20036;-76
2023/06/01 06:54:53;;;;;;;24.45;10.70;;;;;;;12.98;82.49;102159.41;5097338;28;20024;-74
2023/06/01 06:57:18;;;;;;;28.25;10.77;;;;;;;13.08;81.98;102162.41;5111522;28;20067;-75
2023/06/01 06:59:43;;;;;;;24.75;10.43;;;;;;;13.18;81.75;102160.88;5094386;28;20099;-75
2023/06/01 07:02:08;;;;;;;25.58;9.88;;;;;;;13.27;80.77;102167.53;5118325;28;20055;-75
2023/06/01 07:04:34;;;;;;;25.95;11.07;;;;;;;13.31;82.49;102165.47;5097808;28;20390;-74
2023/06/01 07:07:00;;;;;;;21.08;9.55;;;;;;;13.22;80.54;102175.91;5093123;28;20575;-74
2023/06/01 07:09:26;;;;;;;27.55;10.55;;;;;;;13.12;81.80;102169.38;5092924;28;20061;-74
2023/06/01 07:11:51;;;;;;;24.50;10.45;;;;;;;13.06;80.53;102170.63;5110550;28;20095;-74
2023/06/01 07:14:17;;;;;;;24.20;10.30;;;;;;;12.90;80.91;102165.31;5113566;28;20475;-75
2023/06/01 07:16:42;;;;;;;26.10;10.70;;;;;;;12.82;80.98;102162.19;5093363;28;20016;-74
2023/06/01 07:19:08;;;;;;;23.20;10.60;;;;;;;12.86;82.30;102160.19;5089091;28;20028;-74
2023/06/01 07:21:33;;;;;;;25.20;10.00;;;;;;;12.87;81.80;102170.91;5080899;28;20059;-74
2023/06/01 07:23:59;;;;;;;22.55;10.05;;;;;;;12.86;80.72;102162.91;5108333;28;20115;-75
2023/06/01 07:26:26;;;;;;;23.90;10.85;;;;;;;12.88;81.16;102155.56;5085839;28;20024;-74
2023/06/01 07:28:53;;;;;;;25.38;10.27;;;;;;;12.90;81.16;102156.34;5082854;28;20024;-75
2023/06/01 07:31:19;;;;;;;26.98;10.45;;;;;;;12.93;81.67;102158.84;5089650;28;20093;-74
2023/06/01 07:33:45;;;;;;;26.13;11.77;;;;;;;13.01;81.66;102166.47;5113439;28;20031;-75
2023/06/01 07:36:11;;;;;;;25.70;10.45;;;;;;;13.06;81.52;102161.63;5114275;28;20043;-74
2023/06/01 07:38:37;;;;;;;26.58;10.93;;;;;;;13.13;82.68;102162.13;5094675;28;20051;-75
2023/06/01 07:41:02;;;;;;;24.67;9.88;;;;;;;13.12;79.50;102155.88;5091896;28;20039;-74
2023/06/01 07:43:27;;;;;;;25.73;10.30;;;;;;;13.23;80.71;102165.97;5087545;28;20479;-74
2023/06/01 07:45:53;;;;;;;28.00;10.93;;;;;;;13.27;80.50;102162.13;5093779;28;20135;-75
2023/06/01 07:48:19;;;;;;;26.52;11.02;;;;;;;13.36;81.30;102158.00;5115463;28;20100;-75
2023/06/01 07:50:44;;;;;;;25.67;10.65;;;;;;;13.38;80.54;102158.75;5109783;28;20020;-75
2023/06/01 07:53:10;;;;;;;24.70;10.82;;;;;;;13.44;81.31;102152.94;5092825;28;20100;-75
2023/06/01 07:55:35;;;;;;;27.38;10.52;;;;;;;13.51;80.68;102150.72;5105633;28;20046;-74
2023/06/01 07:58:01;;;;;;;24.00;9.77;;;;;;;13.56;80.13;102154.88;5103611;28;20031;-75
2023/06/01 08:00:26;;;;;;;22.90;9.90;;;;;;;13.63;81.49;102156.22;5114446;28;20042;-74
2023/06/01 08:02:52;;;;;;;25.00;10.73;;;;;;;13.68;81.09;102157.75;5114252;28;20095;-75
2023/06/01 08:05:18;;;;;;;24.80;10.32;;;;;;;13.74;81.69;102154.63;5095824;28;20038;-75
2023/06/01 08:07:45;;;;;;;23.98;10.25;;;;;;;13.76;81.02;102153.56;5112337;28;20015;-75
2023/06/01 08:10:12;;;;;;;23.40;9.63;;;;;;;13.78;79.84;102156.19;5094573;28;20140;-75
2023/06/01 08:12:38;;;;;;;27.52;11.40;;;;;;;13.72;77.61;102154.75;5111684;28;20024;-75
2023/06/01 08:15:03;;;;;;;22.17;9.25;;;;;;;13.76;79.15;102155.38;5113047;28;20134;-75
2023/06/01 08:17:30;;;;;;;24.55;9.35;;;;;;;13.78;78.62;102146.22;5115829;28;20023;-75
2023/06/01 08:19:56;;;;;;;25.02;9.40;;;;;;;13.86;78.44;102143.00;5117308;28;20047;-75
2023/06/01 08:22:23;;;;;;;25.58;10.60;;;;;;;13.95;81.47;102142.41;5115468;28;20028;-75
2023/06/01 08:24:51;;;;;;;24.77;10.18;;;;;;;14.07;81.21;102146.13;5112868;28;20098;-75
2023/06/01 08:27:21;;;;;;;25.90;11.27;;;;;;;14.13;78.71;102152.97;5112765;28;20063;-75
2023/06/01 08:29:48;;;;;;;26.08;10.75;;;;;;;14.23;80.55;102148.66;5097402;28;20019;-75
2023/06/01 08:32:14;;;;;;;22.58;10.82;;;;;;;14.25;78.00;102149.41;5114305;28;20034;-75
2023/06/01 08:34:52;;;;;;;24.67;10.13;;;;;;;14.32;77.84;102136.34;5096270;28;20103;-75
2023/06/01 08:37:17;;;;;;;24.85;11.00;;;;;;;14.39;79.07;102139.47;5118341;28;20096;-75
2023/06/01 08:39:42;;;;;;;28.75;10.52;;;;;;;14.44;80.03;102137.34;5098033;28;20107;-75
2023/06/01 08:42:18;;;;;;;25.42;10.73;;;;;;;14.51;79.05;102142.19;5096173;28;20114;-76
2023/06/01 08:44:43;;;;;;;25.55;11.60;;;;;;;14.51;76.09;102138.63;5115129;28;20028;-75
2023/06/01 08:47:09;;;;;;;26.27;10.65;;;;;;;14.58;79.81;102137.22;5114760;28;20080;-75
2023/06/01 08:49:36;;;;;;;29.05;10.57;;;;;;;14.61;76.34;102137.06;5114258;28;20120;-75
2023/06/01 08:52:12;;;;;;;26.85;11.43;;;;;;;14.63;76.14;102137.81;5112133;28;20036;-75
2023/06/01 08:54:38;;;;;;;23.60;10.98;;;;;;;14.72;76.64;102130.03;5097800;28;20119;-75
2023/06/01 08:57:07;;;;;;;26.15;9.98;;;;;;;14.84;78.29;102134.56;5128349;28;20075;-75
2023/06/01 08:59:33;;;;;;;24.67;10.70;;;;;;;14.82;73.64;102136.53;5118252;28;20075;-75
2023/06/01 09:01:59;;;;;;;27.88;10.82;;;;;;;14.86;74.76;102129.88;5119435;28;20114;-74
2023/06/01 09:04:24;;;;;;;28.45;12.05;;;;;;;14.89;74.78;102126.09;5103725;28;20016;-75
2023/06/01 09:06:50;;;;;;;29.60;11.27;;;;;;;14.98;76.08;102125.47;5124541;28;20289;-75
2023/06/01 09:09:15;;;;;;;23.20;11.13;;;;;;;15.00;75.40;102124.34;5119587;28;20028;-75
2023/06/01 09:11:40;;;;;;;26.38;11.43;;;;;;;15.09;77.03;102124.69;5116508;28;20122;-75
2023/06/01 09:14:23;;;;;;;26.02;11.35;;;;;;;15.11;75.60;102128.13;5098734;28;20401;-75
2023/06/01 09:16:48;;;;;;;26.67;11.85;;;;;;;15.11;73.00;102114.59;5100691;28;20534;-74
2023/06/01 09:19:14;;;;;;;27.98;11.88;;;;;;;15.17;74.79;102114.16;5103200;28;20094;-75
2023/06/01 09:21:40;;;;;;;24.65;10.95;;;;;;;15.23;73.95;102112.84;5114977;28;20141;-74
2023/06/01 09:24:24;;;;;;;27.20;10.88;;;;;;;15.27;73.52;102107.09;5098143;28;20020;-75
2023/06/01 09:26:49;;;;;;;28.48;12.75;;;;;;;15.32;73.33;102110.31;5111029;28;20020;-75
2023/06/01 09:29:16;;;;;;;23.65;11.60;;;;;;;15.33;72.45;102112.06;5119341;28;20547;-75
2023/06/01 09:31:45;;;;;;;28.23;11.77;;;;;;;15.47;78.00;102107.47;5121147;28;20023;-75
2023/06/01 09:34:12;;;;;;;;;;;;;;;15.51;75.60;102106.28;5101720;28;20034;-75
2023/06/01 09:36:38;;;;;;;27.42;12.07;;;;;;;15.49;72.65;102102.78;5117365;28;19935;-75
2023/06/01 09:39:06;;;;;;;27.80;11.68;;;;;;;15.51;72.05;102095.44;5117736;28;20055;-75
2023/06/01 09:41:47;;;;;;;24.63;10.57;;;;;;;15.58;73.36;102096.72;5100636;28;20088;-75
2023/06/01 09:44:15;;;;;;;29.77;10.65;;;;;;;15.65;71.82;102091.66;5119065;28;20138;-75
2023/06/01 09:46:54;;;;;;;23.45;11.93;;;;;;;15.69;71.92;102093.19;5118668;28;20024;-75
2023/06/01 09:49:28;;;;;;;26.35;12.45;;;;;;;15.77;72.27;102098.91;5099770;28;20028;-74
2023/06/01 09:52:09;;;;;;;26.42;11.48;;;;;;;15.78;70.68;102088.91;5119329;28;20024;-75
2023/06/01 09:54:50;;;;;;;23.92;10.07;;;;;;;15.82;71.39;102094.00;5117786;28;20031;-75
2023/06/01 09:57:29;;;;;;;27.55;11.30;;;;;;;15.85;69.09;102087.50;5110930;28;20048;-75
2023/06/01 09:59:54;;;;;;;26.63;11.70;;;;;;;15.93;69.66;102089.63;5120165;28;20088;-75
2023/06/01 10:02:22;;;;;;;26.98;11.77;;;;;;;15.97;71.67;102083.84;5103392;28;20289;-75
2023/06/01 10:04:53;;;;;;;26.50;11.63;;;;;;;16.02;71.61;102087.06;5121331;28;20020;-75
2023/06/01 10:07:20;;;;;;;25.77;12.07;;;;;;;16.08;71.40;102083.03;5100547;28;20072;-75
2023/06/01 10:09:53;;;;;;;24.92;10.93;;;;;;;16.08;69.36;102083.88;5099529;28;20051;-75
2023/06/01 10:12:18;;;;;;;24.35;10.43;;;;;;;16.12;69.32;102080.94;5104386;28;20031;-75
2023/06/01 10:14:44;;;;;;;26.25;11.13;;;;;;;16.22;72.06;102079.22;5104536;28;20359;-75
2023/06/01 10:17:11;;;;;;;25.40;11.02;;;;;;;16.26;71.53;102078.00;5120656;28;20134;-76
2023/06/01 10:19:39;;;;;;;28.27;11.80;;;;;;;16.32;70.11;102079.38;5120498;28;20038;-75
2023/06/01 10:22:07;;;;;;;25.67;12.37;;;;;;;16.37;68.70;102085.31;5101933;28;20086;-74
2023/06/01 10:24:34;;;;;;;23.27;11.10;;;;;;;16.43;69.10;102087.56;5101931;28;20019;-75
2023/06/01 10:27:22;;;;;;;24.70;10.98;;;;;;;16.50;70.02;102079.78;5122405;28;20043;-75
2023/06/01 10:29:47;;;;;;;23.63;10.80;;;;;;;16.57;70.00;102078.31;5095529;28;20020;-75
2023/06/01 10:32:45;;;;;;;25.33;11.15;;;;;;;16.67;70.38;102073.88;5121074;28;20066;-75
2023/06/01 10:35:31;;;;;;;25.75;11.70;;;;;;;16.73;70.80;102073.38;5095645;28;20028;-75
2023/06/01 10:38:06;;;;;;;25.95;11.52;;;;;;;16.78;70.01;102073.03;5113635;28;20423;-75
2023/06/01 10:40:33;;;;;;;28.77;12.43;;;;;;;16.81;67.95;102066.47;5105869;28;20069;-76
2023/06/01 10:42:58;;;;;;;22.98;10.63;;;;;;;16.88;71.01;102060.47;5106445;28;20591;-75
2023/06/01 10:45:33;;;;;;;26.58;11.23;;;;;;;16.93;71.86;102063.66;5124561;28;20099;-75
2023/06/01 10:47:59;;;;;;;26.98;10.98;;;;;;;17.04;71.59;102070.97;5094904;28;20054;-75
2023/06/01 10:50:24;;;;;;;26.73;11.60;;;;;;;17.08;69.19;102072.41;5103594;28;20475;-75
2023/06/01 10:52:51;;;;;;;27.15;12.43;;;;;;;17.08;67.06;102072.41;5105292;28;20028;-75
2023/06/01 10:55:16;;;;;;;27.70;12.82;;;;;;;17.09;67.88;102066.00;5120986;28;20035;-75
2023/06/01 10:57:46;;;;;;;26.45;12.23;;;;;;;17.16;68.69;102063.66;5103837;28;20031;-75
2023/06/01 11:00:14;;;;;;;27.08;11.55;;;;;;;17.21;67.75;102071.44;5111634;28;20032;-75
2023/06/01 11:02:48;;;;;;;27.48;13.23;;;;;;;17.22;66.81;102068.59;5119517;28;20047;-75
2023/06/01 11:05:35;;;;;;;24.77;11.93;;;;;;;17.27;68.09;102073.63;5123311;28;20023;-75
2023/06/01 11:08:01;;;;;;;25.67;11.32;;;;;;;17.29;66.78;102060.78;5123958;28;20038;-75
2023/06/01 11:10:46;;;;;;;25.85;12.57;;;;;;;17.34;67.51;102055.84;5102295;28;20020;-75
2023/06/01 11:13:17;;;;;;;26.98;11.75;;;;;;;17.36;65.95;102047.56;5123688;28;20043;-75